Moritz — AEEC — position and weather

sailwx.info

Track history (hours):
 
Tides and Currents Weather Stations Pressure Air Temp Water Temp Dewpoint Dewpoint Depression Visibility Wind Speed Wind Dir Waves Ship Positions

Moritz

Last reported at 2017-Nov-17 19:43 UTC. Time now 2017-Nov-18 19:37 UTC.
Position N 40°41' W 074°04'.

Length 18 m.

Type: Ship. MMSI: 366999444.

Date/timePositionNaut miles runAvg speedWind from/ knotsBaromVisibWave heightAir tempDewpointWater temp
2017-Nov-17 19:43N 40°41' W 074°04'1 6.4
2017-Nov-17 19:30N 40°41' W 074°02'712.9
2017-Nov-17 19:00N 40°47' W 073°60'3 5.4
2017-Nov-17 18:30N 40°50' W 073°58'0 0.0
2017-Nov-17 16:22N 40°50' W 073°58'513.9
2017-Nov-17 15:59N 40°54' W 073°55'1 0.5
2017-Nov-17 14:30N 40°55' W 073°55'611.9
2017-Nov-17 14:00N 40°49' W 073°58'612.6
2017-Nov-17 13:30N 40°44' W 074°01'4 7.1
2017-Nov-17 13:00N 40°41' W 074°04'0 0.0
2017-Nov-17 12:30N 40°41' W 074°04'0 0.0
2017-Nov-17 12:00N 40°41' W 074°04'0 0.0
2017-Nov-16 19:43N 40°41' W 074°04'2 7.9
2017-Nov-16 19:31N 40°40' W 074°03'4 7.7
2017-Nov-16 19:00N 40°36' W 074°02'1 2.9
2017-Nov-16 18:30N 40°37' W 074°03'3 1.9
2017-Nov-16 16:53N 40°40' W 074°00'3 8.5
2017-Nov-16 16:30N 40°43' W 073°58'917.1
2017-Nov-16 15:59N 40°48' W 073°49'1 2.2
2017-Nov-16 15:30N 40°48' W 073°51'5 9.3
2017-Nov-16 15:00N 40°46' W 073°57'4 8.4
2017-Nov-16 14:30N 40°43' W 073°59'3 6.6
2017-Nov-16 14:01N 40°40' W 074°02'4 8.3
2017-Nov-16 13:31N 40°43' W 073°58'5 9.8
2017-Nov-16 13:00N 40°40' W 074°03'1 2.3
2017-Nov-16 12:30N 40°41' W 074°04'0 0.0
2017-Nov-14 19:53N 40°41' W 074°04'3 7.3
2017-Nov-14 19:30N 40°38' W 074°03'10 8.7
2017-Nov-14 18:23N 40°29' W 074°03'411.5
2017-Nov-14 18:00N 40°33' W 074°02'510.6
2017-Nov-14 17:30N 40°38' W 074°03'2 5.0
2017-Nov-14 17:00N 40°41' W 074°04'4 2.0
2017-Nov-14 15:04N 40°44' W 074°02'0 3.4
2017-Nov-14 15:00N 40°44' W 074°01'5 9.1
2017-Nov-14 14:30N 40°48' W 073°59'3 5.4
2017-Nov-14 14:01N 40°46' W 074°01'4 8.4
2017-Nov-14 13:30N 40°42' W 074°02'2 3.8
2017-Nov-14 13:01N 40°41' W 074°04'  
2017-Nov-09 18:59N 40°41' W 074°04'510.0
2017-Nov-09 18:30N 40°45' W 074°01'611.5
2017-Nov-09 18:01N 40°39' W 074°02'0 0.2
2017-Nov-09 15:50N 40°39' W 074°02'2 7.7
2017-Nov-09 15:30N 40°36' W 074°03'612.1
2017-Nov-09 15:00N 40°34' W 073°55'4 8.2
2017-Nov-09 14:29N 40°38' W 073°53'1 2.6
2017-Nov-09 14:00N 40°37' W 073°53'6 9.8
2017-Nov-09 13:25N 40°34' W 073°60'513.0
2017-Nov-09 13:00N 40°39' W 074°03'3 5.3
2017-Nov-09 12:31N 40°41' W 074°04'1 0.0
2017-Nov-08 20:05N 40°41' W 074°04'0 4.3
2017-Nov-08 20:00N 40°40' W 074°04'4 8.5
2017-Nov-08 19:30N 40°36' W 074°03'2 4.0
2017-Nov-08 19:00N 40°38' W 074°03'612.4
2017-Nov-08 18:30N 40°44' W 074°01'5 9.8
2017-Nov-08 18:01N 40°49' W 073°59'1 2.3
2017-Nov-08 17:30N 40°50' W 073°58'0 0.0
2017-Nov-08 17:00N 40°50' W 073°58'0 0.0
2017-Nov-08 16:30N 40°50' W 073°58'1 1.7
2017-Nov-08 16:01N 40°50' W 073°58'0 0.7
2017-Nov-08 15:30N 40°51' W 073°57'611.7
2017-Nov-08 15:01N 40°45' W 074°01'612.0
2017-Nov-08 14:30N 40°40' W 074°03'6 6.4
2017-Nov-08 13:30N 40°33' W 074°05'611.5
2017-Nov-08 13:00N 40°39' W 074°03'2 0.1
2017-Nov-07 19:56N 40°41' W 074°04'  
Track history (hours):
 
Tides and Currents Weather Stations Pressure Air Temp Water Temp Dewpoint Dewpoint Depression Visibility Wind Speed Wind Dir Waves Ship Positions

Moritz

Last reported at 2017-Nov-17 19:43 UTC. Time now 2017-Nov-18 19:37 UTC.
Position N 40°41' W 074°04'.

Length 18 m.

Type: Ship. MMSI: 366999444.

Date/timePositionNaut miles runAvg speedWind from/ knotsBaromVisibWave heightAir tempDewpointWater temp
2017-Nov-17 19:43N 40°41' W 074°04'1 6.4
2017-Nov-17 19:30N 40°41' W 074°02'712.9
2017-Nov-17 19:00N 40°47' W 073°60'3 5.4
2017-Nov-17 18:30N 40°50' W 073°58'0 0.0
2017-Nov-17 16:22N 40°50' W 073°58'513.9
2017-Nov-17 15:59N 40°54' W 073°55'1 0.5
2017-Nov-17 14:30N 40°55' W 073°55'611.9
2017-Nov-17 14:00N 40°49' W 073°58'612.6
2017-Nov-17 13:30N 40°44' W 074°01'4 7.1
2017-Nov-17 13:00N 40°41' W 074°04'0 0.0
2017-Nov-17 12:30N 40°41' W 074°04'0 0.0
2017-Nov-17 12:00N 40°41' W 074°04'0 0.0
2017-Nov-16 19:43N 40°41' W 074°04'2 7.9
2017-Nov-16 19:31N 40°40' W 074°03'4 7.7
2017-Nov-16 19:00N 40°36' W 074°02'1 2.9
2017-Nov-16 18:30N 40°37' W 074°03'3 1.9
2017-Nov-16 16:53N 40°40' W 074°00'3 8.5
2017-Nov-16 16:30N 40°43' W 073°58'917.1
2017-Nov-16 15:59N 40°48' W 073°49'1 2.2
2017-Nov-16 15:30N 40°48' W 073°51'5 9.3
2017-Nov-16 15:00N 40°46' W 073°57'4 8.4
2017-Nov-16 14:30N 40°43' W 073°59'3 6.6
2017-Nov-16 14:01N 40°40' W 074°02'4 8.3
2017-Nov-16 13:31N 40°43' W 073°58'5 9.8
2017-Nov-16 13:00N 40°40' W 074°03'1 2.3
2017-Nov-16 12:30N 40°41' W 074°04'0 0.0
2017-Nov-14 19:53N 40°41' W 074°04'3 7.3
2017-Nov-14 19:30N 40°38' W 074°03'10 8.7
2017-Nov-14 18:23N 40°29' W 074°03'411.5
2017-Nov-14 18:00N 40°33' W 074°02'510.6
2017-Nov-14 17:30N 40°38' W 074°03'2 5.0
2017-Nov-14 17:00N 40°41' W 074°04'4 2.0
2017-Nov-14 15:04N 40°44' W 074°02'0 3.4
2017-Nov-14 15:00N 40°44' W 074°01'5 9.1
2017-Nov-14 14:30N 40°48' W 073°59'3 5.4
2017-Nov-14 14:01N 40°46' W 074°01'4 8.4
2017-Nov-14 13:30N 40°42' W 074°02'2 3.8
2017-Nov-14 13:01N 40°41' W 074°04'  
2017-Nov-09 18:59N 40°41' W 074°04'510.0
2017-Nov-09 18:30N 40°45' W 074°01'611.5
2017-Nov-09 18:01N 40°39' W 074°02'0 0.2
2017-Nov-09 15:50N 40°39' W 074°02'2 7.7
2017-Nov-09 15:30N 40°36' W 074°03'612.1
2017-Nov-09 15:00N 40°34' W 073°55'4 8.2
2017-Nov-09 14:29N 40°38' W 073°53'1 2.6
2017-Nov-09 14:00N 40°37' W 073°53'6 9.8
2017-Nov-09 13:25N 40°34' W 073°60'513.0
2017-Nov-09 13:00N 40°39' W 074°03'3 5.3
2017-Nov-09 12:31N 40°41' W 074°04'1 0.0
2017-Nov-08 20:05N 40°41' W 074°04'0 4.3
2017-Nov-08 20:00N 40°40' W 074°04'4 8.5
2017-Nov-08 19:30N 40°36' W 074°03'2 4.0
2017-Nov-08 19:00N 40°38' W 074°03'612.4
2017-Nov-08 18:30N 40°44' W 074°01'5 9.8
2017-Nov-08 18:01N 40°49' W 073°59'1 2.3
2017-Nov-08 17:30N 40°50' W 073°58'0 0.0
2017-Nov-08 17:00N 40°50' W 073°58'0 0.0
2017-Nov-08 16:30N 40°50' W 073°58'1 1.7
2017-Nov-08 16:01N 40°50' W 073°58'0 0.7
2017-Nov-08 15:30N 40°51' W 073°57'611.7
2017-Nov-08 15:01N 40°45' W 074°01'612.0
2017-Nov-08 14:30N 40°40' W 074°03'6 6.4
2017-Nov-08 13:30N 40°33' W 074°05'611.5
2017-Nov-08 13:00N 40°39' W 074°03'2 0.1
2017-Nov-07 19:56N 40°41' W 074°04'  

Dump ship's entire track history